Time;durP1;ratioP1;P1;durP2;ratioP2;P2;SDS_P1;SDS_P2;PMS_P1;PMS_P2;Temp;Humidity;BMP_temperature;BMP_pressure;BME280_temperature;BME280_humidity;BME280_pressure;Samples;Min_cycle;Max_cycle;Signal;HPM_P1;HPM_P2
2022/11/15 00:01:47;;;;;;;2.50;1.55;;;21.10;57.10;;;;;;5037423;28;20108;-63
2022/11/15 00:04:12;;;;;;;2.20;1.60;;;21.10;57.10;;;;;;5037873;28;20477;-63
2022/11/15 00:06:38;;;;;;;3.35;1.98;;;21.10;57.10;;;;;;5032577;28;20026;-63
2022/11/15 00:09:04;;;;;;;2.60;1.70;;;21.10;57.10;;;;;;5029229;28;20111;-63
2022/11/15 00:11:29;;;;;;;2.97;1.55;;;21.10;57.10;;;;;;5032649;28;20550;-62
2022/11/15 00:13:56;;;;;;;2.80;1.70;;;21.10;57.10;;;;;;5037004;28;20025;-62
2022/11/15 00:16:22;;;;;;;2.10;1.60;;;21.10;57.10;;;;;;5038928;28;20060;-63
2022/11/15 00:18:48;;;;;;;2.03;1.50;;;21.00;57.10;;;;;;5037467;28;20452;-63
2022/11/15 00:21:14;;;;;;;2.42;1.70;;;21.00;57.00;;;;;;5037376;28;20108;-62
2022/11/15 00:23:40;;;;;;;2.22;1.52;;;21.00;57.10;;;;;;5034015;28;20532;-63
2022/11/15 00:26:06;;;;;;;2.70;1.50;;;21.00;57.00;;;;;;5048743;28;20100;-63
2022/11/15 00:28:32;;;;;;;2.72;1.70;;;21.00;57.00;;;;;;5044241;28;20120;-63
2022/11/15 00:31:05;;;;;;;2.42;1.45;;;21.00;57.10;;;;;;5031017;28;20116;-62
2022/11/15 00:33:32;;;;;;;2.50;1.70;;;21.00;57.10;;;;;;5037883;28;20553;-64
2022/11/15 00:36:11;;;;;;;2.85;1.67;;;21.00;57.00;;;;;;5041040;28;20026;-63
2022/11/15 00:38:39;;;;;;;2.10;1.58;;;21.00;57.00;;;;;;5040404;28;20041;-63
2022/11/15 00:41:06;;;;;;;2.47;1.60;;;21.00;57.00;;;;;;5036878;28;20120;-63
2022/11/15 00:43:32;;;;;;;2.58;1.60;;;21.00;57.00;;;;;;5032419;28;20495;-62
2022/11/15 00:45:58;;;;;;;2.72;1.60;;;21.00;57.10;;;;;;5029173;28;20112;-63
2022/11/15 00:48:24;;;;;;;2.60;1.77;;;21.00;57.00;;;;;;5029799;28;20068;-63
2022/11/15 00:50:49;;;;;;;2.42;1.58;;;21.00;57.00;;;;;;5036094;28;20029;-64
2022/11/15 00:53:16;;;;;;;2.42;1.52;;;21.00;57.10;;;;;;5038046;28;20113;-62
2022/11/15 00:55:41;;;;;;;2.47;1.58;;;21.00;57.10;;;;;;5035825;28;20396;-62
2022/11/15 00:58:07;;;;;;;2.35;1.60;;;21.00;57.10;;;;;;5038938;28;20037;-63
2022/11/15 01:00:33;;;;;;;2.38;1.60;;;20.90;57.10;;;;;;5037339;28;20025;-62
2022/11/15 01:03:00;;;;;;;2.58;1.58;;;20.90;57.30;;;;;;5039163;28;20488;-62
2022/11/15 01:05:26;;;;;;;2.47;1.50;;;20.90;57.10;;;;;;5041471;28;20029;-63
2022/11/15 01:07:53;;;;;;;2.15;1.55;;;20.90;57.10;;;;;;5033330;28;20178;-62
2022/11/15 01:10:18;;;;;;;2.20;1.50;;;20.90;57.00;;;;;;5031047;28;20038;-63
2022/11/15 01:12:44;;;;;;;2.17;1.48;;;20.90;57.00;;;;;;5039508;28;20052;-63
2022/11/15 01:15:09;;;;;;;3.05;1.60;;;20.90;57.00;;;;;;5035346;28;20038;-62
2022/11/15 01:17:35;;;;;;;1.80;1.40;;;20.90;57.10;;;;;;5038297;28;20435;-63
2022/11/15 01:20:01;;;;;;;2.13;1.45;;;20.90;57.10;;;;;;5035151;28;20035;-62
2022/11/15 01:22:27;;;;;;;3.20;1.67;;;20.90;57.00;;;;;;5027487;28;20030;-62
2022/11/15 01:24:52;;;;;;;2.20;1.40;;;20.90;57.10;;;;;;5030743;28;20041;-62
2022/11/15 01:27:18;;;;;;;2.10;1.40;;;20.90;57.10;;;;;;5035437;28;20454;-62
2022/11/15 01:29:44;;;;;;;2.22;1.42;;;20.90;57.10;;;;;;5038441;28;20105;-62
2022/11/15 01:32:09;;;;;;;1.88;1.33;;;20.90;57.00;;;;;;5041138;28;20124;-62
2022/11/15 01:34:35;;;;;;;3.20;1.60;;;20.80;57.10;;;;;;5039593;28;20034;-63
2022/11/15 01:37:02;;;;;;;2.38;1.52;;;20.90;57.10;;;;;;5034685;28;20049;-62
2022/11/15 01:39:27;;;;;;;2.10;1.40;;;20.80;57.00;;;;;;5038914;28;20037;-63
2022/11/15 01:41:54;;;;;;;2.65;1.80;;;20.80;57.10;;;;;;5032793;28;20034;-63
2022/11/15 01:44:49;;;;;;;2.22;1.60;;;20.80;57.10;;;;;;5033545;28;20021;-63
2022/11/15 01:47:54;;;;;;;2.85;1.50;;;20.80;57.00;;;;;;5033583;28;20037;-63
2022/11/15 01:50:24;;;;;;;2.60;1.70;;;20.80;57.10;;;;;;4952369;29;20498;-62
2022/11/15 01:52:50;;;;;;;2.83;1.70;;;20.80;57.10;;;;;;4952382;29;20063;-62
2022/11/15 01:55:21;;;;;;;2.60;1.55;;;20.80;57.10;;;;;;4998124;28;20064;-62
2022/11/15 01:57:50;;;;;;;2.00;1.50;;;20.80;57.10;;;;;;5028875;28;20037;-64
2022/11/15 02:00:16;;;;;;;1.98;1.42;;;20.80;57.10;;;;;;5031925;28;20026;-63
2022/11/15 02:02:42;;;;;;;2.72;1.60;;;20.80;57.10;;;;;;5035755;28;20381;-63
2022/11/15 02:05:08;;;;;;;2.65;1.60;;;20.80;57.00;;;;;;5032859;28;20033;-62
2022/11/15 02:07:35;;;;;;;2.13;1.58;;;20.80;57.10;;;;;;5036381;28;20034;-65
2022/11/15 02:10:22;;;;;;;2.08;1.40;;;20.80;57.10;;;;;;5042480;28;20095;-62
2022/11/15 02:12:49;;;;;;;2.60;1.70;;;20.80;57.10;;;;;;5035734;28;20442;-62
2022/11/15 02:15:15;;;;;;;1.80;1.20;;;20.80;57.10;;;;;;5034584;28;20417;-63
2022/11/15 02:18:05;;;;;;;2.13;1.40;;;20.70;57.00;;;;;;5036024;28;20798;-63
2022/11/15 02:20:55;;;;;;;2.03;1.38;;;20.70;57.00;;;;;;5033450;28;20133;-65
2022/11/15 02:23:44;;;;;;;2.25;1.50;;;20.70;57.00;;;;;;5032096;28;20527;-63
2022/11/15 02:26:18;;;;;;;;;;;20.70;57.10;;;;;;5031936;28;20076;-63
2022/11/15 02:29:08;;;;;;;2.20;1.55;;;20.70;57.10;;;;;;5040906;28;20379;-63
2022/11/15 02:31:42;;;;;;;2.08;1.42;;;20.70;57.10;;;;;;5042619;28;20041;-62
2022/11/15 02:34:16;;;;;;;2.22;1.60;;;20.70;57.10;;;;;;5024172;28;20452;-62
2022/11/15 02:36:56;;;;;;;2.25;1.50;;;20.70;57.10;;;;;;5034678;28;20071;-62
2022/11/15 02:39:32;;;;;;;2.03;1.45;;;20.70;57.10;;;;;;5036696;28;20113;-63
2022/11/15 02:42:04;;;;;;;2.50;1.70;;;20.70;57.10;;;;;;5034634;28;20144;-62
2022/11/15 02:44:37;;;;;;;2.25;1.40;;;20.70;57.10;;;;;;5033276;28;20469;-64
2022/11/15 02:47:13;;;;;;;2.20;1.50;;;20.70;57.10;;;;;;5038008;28;20029;-63
2022/11/15 02:49:57;;;;;;;1.92;1.40;;;20.70;57.10;;;;;;5033783;28;20370;-62
2022/11/15 02:52:27;;;;;;;2.35;1.50;;;20.70;57.10;;;;;;5036411;28;20045;-62
2022/11/15 02:54:57;;;;;;;2.53;1.60;;;20.70;57.60;;;;;;5037155;28;20104;-63
2022/11/15 02:57:34;;;;;;;2.00;1.48;;;20.60;57.00;;;;;;5030329;28;20084;-62
2022/11/15 03:00:10;;;;;;;2.15;1.40;;;20.60;57.00;;;;;;5032073;28;20036;-63
2022/11/15 03:02:48;;;;;;;2.17;1.58;;;20.70;57.10;;;;;;5033830;28;20480;-62
2022/11/15 03:05:25;;;;;;;2.30;1.55;;;20.60;57.00;;;;;;5030327;28;20018;-63
2022/11/15 03:07:54;;;;;;;2.20;1.58;;;20.60;57.00;;;;;;5043840;28;20036;-61
2022/11/15 03:10:31;;;;;;;2.15;1.55;;;20.60;57.00;;;;;;5031352;28;20045;-62
2022/11/15 03:13:08;;;;;;;3.13;1.30;;;20.60;57.00;;;;;;5035262;28;20082;-63
2022/11/15 03:15:40;;;;;;;2.28;1.60;;;20.60;57.00;;;;;;5035955;28;20776;-62
2022/11/15 03:18:40;;;;;;;1.90;1.40;;;20.60;57.00;;;;;;5031378;28;20469;-63
2022/11/15 03:21:08;;;;;;;2.10;1.50;;;20.60;57.10;;;;;;5021219;28;20030;-62
2022/11/15 03:23:36;;;;;;;1.90;1.40;;;20.60;57.00;;;;;;5030469;28;20071;-62
2022/11/15 03:26:07;;;;;;;2.17;1.42;;;20.60;57.00;;;;;;5037832;28;20108;-63
2022/11/15 03:28:38;;;;;;;2.13;1.40;;;20.60;57.00;;;;;;5038428;28;20040;-62
2022/11/15 03:31:46;;;;;;;2.33;1.73;;;20.60;57.00;;;;;;5031011;28;20029;-62
2022/11/15 03:33:54;;;;;;;2.55;1.30;;;20.60;57.10;;;;;;5029661;28;20037;-62
2022/11/15 03:36:23;;;;;;;2.40;1.50;;;20.60;57.10;;;;;;5033334;28;20021;-62
2022/11/15 03:38:49;;;;;;;1.90;1.33;;;20.60;57.10;;;;;;5031900;28;20029;-63
2022/11/15 03:41:24;;;;;;;2.03;1.38;;;20.60;57.10;;;;;;5033335;28;20022;-63
2022/11/15 03:44:10;;;;;;;2.40;1.50;;;20.60;57.00;;;;;;5031150;28;20461;-62
2022/11/15 03:47:01;;;;;;;2.03;1.50;;;20.60;57.10;;;;;;5038489;28;20036;-63
2022/11/15 03:49:36;;;;;;;1.65;1.35;;;20.60;57.50;;;;;;5012958;28;20078;-63
2022/11/15 03:52:03;;;;;;;2.20;1.40;;;20.60;57.10;;;;;;5036687;28;20021;-62
2022/11/15 03:54:29;;;;;;;2.17;1.60;;;20.60;57.10;;;;;;5034276;28;20170;-62
2022/11/15 03:56:54;;;;;;;1.92;1.40;;;20.60;57.10;;;;;;5029130;28;20152;-63
2022/11/15 03:59:20;;;;;;;1.92;1.40;;;20.50;57.00;;;;;;5034112;28;20026;-62
2022/11/15 04:01:46;;;;;;;1.90;1.40;;;20.50;57.00;;;;;;5031041;28;20080;-61
2022/11/15 04:04:11;;;;;;;1.88;1.30;;;20.60;57.10;;;;;;5041677;28;20030;-62
2022/11/15 04:06:37;;;;;;;1.92;1.30;;;20.50;57.00;;;;;;5029347;28;20382;-62
2022/11/15 04:09:03;;;;;;;2.22;1.65;;;20.50;57.00;;;;;;5024197;28;20428;-63
2022/11/15 04:11:28;;;;;;;2.15;1.40;;;20.50;57.00;;;;;;5037370;28;20029;-63
2022/11/15 04:13:54;;;;;;;1.88;1.23;;;20.60;57.10;;;;;;5035421;28;20076;-63
2022/11/15 04:16:20;;;;;;;1.58;1.15;;;20.50;57.00;;;;;;5036584;28;20029;-64
2022/11/15 04:24:11;;;;;;;1.88;1.30;;;20.50;57.00;;;;;;5035361;28;20109;-62
2022/11/15 04:24:15;;;;;;;1.85;1.25;;;20.50;57.10;;;;;;5033491;28;20036;-62
2022/11/15 04:26:41;;;;;;;2.17;1.48;;;20.50;57.00;;;;;;5028930;28;20024;-62
2022/11/15 04:31:50;;;;;;;2.00;1.48;;;20.50;57.10;;;;;;5032926;28;20181;-63
2022/11/15 04:34:16;;;;;;;1.75;1.33;;;20.50;57.10;;;;;;5030032;28;20462;-61
2022/11/15 04:39:26;;;;;;;1.70;1.27;;;20.50;57.10;;;;;;5031825;28;20064;-62
2022/11/15 04:41:52;;;;;;;2.35;1.40;;;20.50;57.10;;;;;;5032380;28;20416;-62
2022/11/15 04:44:17;;;;;;;2.08;1.30;;;20.50;57.10;;;;;;5027558;28;20029;-62
2022/11/15 04:46:43;;;;;;;1.80;1.38;;;20.50;57.10;;;;;;5035574;28;20374;-62
2022/11/15 04:49:08;;;;;;;1.73;1.27;;;20.50;57.10;;;;;;5039341;28;20053;-62
2022/11/15 04:51:34;;;;;;;2.03;1.50;;;20.40;57.10;;;;;;5044165;28;20041;-63
2022/11/15 04:53:59;;;;;;;1.88;1.35;;;20.50;57.10;;;;;;5039052;28;20029;-62
2022/11/15 04:56:25;;;;;;;2.38;1.40;;;20.50;57.20;;;;;;5039798;28;20032;-63
2022/11/15 04:58:51;;;;;;;2.03;1.35;;;20.50;57.20;;;;;;5034155;28;20542;-62
2022/11/15 05:01:17;;;;;;;2.00;1.40;;;20.50;57.20;;;;;;5033847;28;20026;-63
2022/11/15 05:06:28;;;;;;;2.10;1.35;;;20.40;57.20;;;;;;5034593;28;20040;-62
2022/11/15 05:08:54;;;;;;;1.98;1.30;;;20.40;57.20;;;;;;5037958;28;20026;-62
2022/11/15 05:11:20;;;;;;;1.92;1.30;;;20.40;57.20;;;;;;5040020;28;20540;-62
2022/11/15 05:13:46;;;;;;;2.40;1.48;;;20.40;57.30;;;;;;5038621;28;20108;-63
2022/11/15 05:16:11;;;;;;;2.08;1.38;;;20.40;57.30;;;;;;5040156;28;20025;-63
2022/11/15 05:18:40;;;;;;;2.30;1.65;;;20.40;57.30;;;;;;5031537;28;20029;-64
2022/11/15 05:21:11;;;;;;;2.33;1.47;;;20.40;57.30;;;;;;5035909;28;20059;-62
2022/11/15 05:23:37;;;;;;;2.88;1.50;;;20.40;57.40;;;;;;5034801;28;20702;-62
2022/11/15 05:26:05;;;;;;;2.70;1.63;;;20.40;57.40;;;;;;5031093;28;20025;-62
2022/11/15 05:28:31;;;;;;;3.65;1.83;;;20.40;57.40;;;;;;5039872;28;20456;-63
2022/11/15 05:31:16;;;;;;;2.55;1.58;;;20.40;57.40;;;;;;5037229;28;20040;-63
2022/11/15 05:33:43;;;;;;;2.20;1.50;;;20.40;57.90;;;;;;5037188;28;20056;-62
2022/11/15 05:36:41;;;;;;;2.78;1.55;;;20.40;57.40;;;;;;5035346;28;20104;-62
2022/11/15 05:39:07;;;;;;;2.35;1.60;;;20.40;57.40;;;;;;4983559;28;20056;-63
2022/11/15 05:41:47;;;;;;;2.25;1.58;;;20.40;57.50;;;;;;5033999;28;20029;-63
2022/11/15 05:44:16;;;;;;;2.30;1.42;;;20.40;57.50;;;;;;5029870;28;20464;-64
2022/11/15 05:46:42;;;;;;;2.20;1.48;;;20.40;57.50;;;;;;5035361;28;20395;-62
2022/11/15 05:49:11;;;;;;;2.65;1.50;;;20.40;57.50;;;;;;5043052;28;20029;-62
2022/11/15 05:51:38;;;;;;;2.20;1.50;;;20.40;57.50;;;;;;5042674;28;20025;-63
2022/11/15 05:54:03;;;;;;;2.75;1.65;;;20.30;57.50;;;;;;5036050;28;20041;-63
2022/11/15 05:56:29;;;;;;;2.75;1.75;;;20.40;57.50;;;;;;5039686;28;20029;-62
2022/11/15 05:58:57;;;;;;;3.03;1.60;;;20.40;57.60;;;;;;5035236;28;20071;-63
2022/11/15 06:01:24;;;;;;;2.17;1.42;;;20.30;57.50;;;;;;5034542;28;20036;-62
2022/11/15 06:03:50;;;;;;;2.58;1.60;;;20.30;57.50;;;;;;5035784;28;20025;-62
2022/11/15 06:06:15;;;;;;;3.47;1.63;;;20.30;57.50;;;;;;5037138;28;20053;-64
2022/11/15 06:08:41;;;;;;;2.38;1.50;;;20.40;57.60;;;;;;5036600;28;20042;-62
2022/11/15 06:11:07;;;;;;;2.30;1.52;;;20.30;57.50;;;;;;5036224;28;20037;-62
2022/11/15 06:13:34;;;;;;;2.58;1.60;;;20.40;57.60;;;;;;5036285;28;20476;-62
2022/11/15 06:15:59;;;;;;;2.92;1.58;;;20.30;57.60;;;;;;5019142;28;20044;-62
2022/11/15 06:18:25;;;;;;;2.15;1.50;;;20.30;57.60;;;;;;5016784;28;20473;-62
2022/11/15 06:20:51;;;;;;;2.50;1.58;;;20.30;57.60;;;;;;5034374;28;20151;-61
2022/11/15 06:23:17;;;;;;;2.78;1.60;;;20.30;58.20;;;;;;5031605;28;20029;-62
2022/11/15 06:25:42;;;;;;;2.70;1.70;;;20.50;59.00;;;;;;5042326;28;20025;-63
2022/11/15 06:28:08;;;;;;;2.70;1.80;;;20.60;58.90;;;;;;5042515;28;20481;-62
2022/11/15 06:30:34;;;;;;;2.95;1.90;;;20.90;58.60;;;;;;5033769;28;20088;-63
2022/11/15 06:33:02;;;;;;;2.40;1.60;;;21.00;58.40;;;;;;5036824;28;20034;-62
2022/11/15 06:35:28;;;;;;;2.72;1.70;;;21.20;58.60;;;;;;5036100;28;20546;-61
2022/11/15 06:37:54;;;;;;;3.25;1.75;;;21.30;58.30;;;;;;5032233;28;20480;-63
2022/11/15 06:40:19;;;;;;;2.40;1.50;;;21.50;58.40;;;;;;5033072;28;20120;-62
2022/11/15 06:42:45;;;;;;;2.28;1.50;;;21.60;58.20;;;;;;5032852;28;20027;-62
2022/11/15 06:45:11;;;;;;;2.63;1.60;;;21.80;58.20;;;;;;5039005;28;20060;-63
2022/11/15 06:47:47;;;;;;;2.35;1.60;;;22.00;58.10;;;;;;5025691;28;20529;-63
2022/11/15 06:50:13;;;;;;;1.85;1.23;;;22.10;58.10;;;;;;5035947;28;20080;-61
2022/11/15 06:52:38;;;;;;;1.88;1.10;;;22.20;57.80;;;;;;5029288;28;20057;-60
2022/11/15 06:55:05;;;;;;;1.92;1.25;;;22.20;57.70;;;;;;5033819;28;20030;-61
2022/11/15 06:57:32;;;;;;;2.05;1.10;;;22.10;57.60;;;;;;5035372;28;20473;-61
2022/11/15 06:59:57;;;;;;;1.98;1.25;;;22.00;57.50;;;;;;5030505;28;20499;-61
2022/11/15 07:02:23;;;;;;;1.77;1.10;;;22.00;57.60;;;;;;5034756;28;20033;-60
2022/11/15 07:04:48;;;;;;;1.25;1.02;;;22.00;57.60;;;;;;5042993;28;20037;-61
2022/11/15 07:07:14;;;;;;;2.15;1.30;;;22.00;57.60;;;;;;5035146;28;20025;-64
2022/11/15 07:09:40;;;;;;;2.25;1.40;;;22.00;58.10;;;;;;5034791;28;20396;-64
2022/11/15 07:12:06;;;;;;;2.00;1.20;;;22.00;57.70;;;;;;5036019;28;20032;-61
2022/11/15 07:14:31;;;;;;;2.45;1.30;;;22.10;57.60;;;;;;5030359;28;20036;-61
2022/11/15 07:16:57;;;;;;;2.38;1.40;;;22.10;57.50;;;;;;5032994;28;20036;-63
2022/11/15 07:19:22;;;;;;;1.88;1.20;;;22.10;57.50;;;;;;5034415;28;20135;-63
2022/11/15 07:21:48;;;;;;;1.77;1.20;;;22.10;57.90;;;;;;5038136;28;20468;-63
2022/11/15 07:24:14;;;;;;;2.10;1.20;;;22.10;57.40;;;;;;5043059;28;20080;-61
2022/11/15 07:26:39;;;;;;;1.73;1.23;;;22.10;57.30;;;;;;5032874;28;20025;-62
2022/11/15 07:29:05;;;;;;;2.08;1.10;;;22.20;57.40;;;;;;5028523;28;20029;-61
2022/11/15 07:31:31;;;;;;;1.65;1.10;;;22.20;57.40;;;;;;5038203;28;20380;-61
2022/11/15 07:33:57;;;;;;;1.45;1.05;;;22.20;57.40;;;;;;5036036;28;20030;-62
2022/11/15 07:36:22;;;;;;;2.15;1.20;;;22.30;57.40;;;;;;5038960;28;20088;-62
2022/11/15 07:38:48;;;;;;;1.70;1.15;;;22.30;57.30;;;;;;5035748;28;20452;-63
2022/11/15 07:41:13;;;;;;;1.50;1.10;;;22.30;57.40;;;;;;5039329;28;20022;-62
2022/11/15 07:43:39;;;;;;;2.08;1.35;;;22.30;57.30;;;;;;5032669;28;20083;-61
2022/11/15 07:46:08;;;;;;;1.90;1.30;;;22.30;57.40;;;;;;5025243;28;20084;-62
2022/11/15 07:48:39;;;;;;;;;;;22.30;57.40;;;;;;5035649;28;20030;-62
2022/11/15 07:51:05;;;;;;;1.60;1.10;;;22.40;58.30;;;;;;5031094;28;19908;-61
2022/11/15 07:53:31;;;;;;;1.92;1.17;;;22.50;58.30;;;;;;5031779;28;20069;-62
2022/11/15 07:55:56;;;;;;;2.92;1.15;;;22.50;58.10;;;;;;5034393;28;20034;-61
2022/11/15 07:58:22;;;;;;;1.92;1.10;;;22.50;58.00;;;;;;5032849;28;20029;-62
2022/11/15 08:00:48;;;;;;;2.20;1.20;;;22.50;58.30;;;;;;5042374;28;20108;-62
2022/11/15 08:03:15;;;;;;;2.13;1.20;;;22.50;58.10;;;;;;5038036;28;20025;-62
2022/11/15 08:05:42;;;;;;;3.13;1.10;;;22.60;58.00;;;;;;5031616;28;20033;-62
2022/11/15 08:08:09;;;;;;;1.85;1.10;;;22.60;57.80;;;;;;5035337;28;20024;-62
2022/11/15 08:10:36;;;;;;;1.45;1.10;;;22.60;58.20;;;;;;5039670;28;20496;-62
2022/11/15 08:13:10;;;;;;;1.75;1.00;;;22.70;58.50;;;;;;5035117;28;20048;-61
2022/11/15 08:15:37;;;;;;;2.05;1.15;;;22.70;58.00;;;;;;5032509;28;20029;-61
2022/11/15 08:18:05;;;;;;;2.22;1.00;;;22.70;57.80;;;;;;5034656;28;20325;-62
2022/11/15 08:20:32;;;;;;;2.10;1.20;;;22.70;57.80;;;;;;5029307;28;20041;-62
2022/11/15 08:22:58;;;;;;;2.08;1.30;;;22.70;57.70;;;;;;5031223;28;20029;-62
2022/11/15 08:25:27;;;;;;;2.92;1.60;;;22.80;55.00;;;;;;5035993;28;20032;-62
2022/11/15 08:27:55;;;;;;;2.58;1.77;;;22.70;55.00;;;;;;5040031;28;20033;-62
2022/11/15 08:30:21;;;;;;;3.15;1.60;;;22.80;54.40;;;;;;5039174;28;20504;-63
2022/11/15 08:32:48;;;;;;;2.38;1.50;;;22.80;54.10;;;;;;5038064;28;20033;-63
2022/11/15 08:35:13;;;;;;;3.38;1.73;;;22.80;54.20;;;;;;5039727;28;20468;-62
2022/11/15 08:37:39;;;;;;;2.80;1.55;;;22.80;54.10;;;;;;5039867;28;20124;-62
2022/11/15 08:40:05;;;;;;;2.30;1.60;;;22.80;54.00;;;;;;5040242;28;20041;-63
2022/11/15 08:42:31;;;;;;;2.58;1.50;;;22.80;53.90;;;;;;5034594;28;20037;-63
2022/11/15 08:44:57;;;;;;;2.50;1.70;;;22.80;53.80;;;;;;5031104;28;20025;-63
2022/11/15 08:47:22;;;;;;;2.63;1.58;;;22.80;53.70;;;;;;5044073;28;20029;-63
2022/11/15 08:49:48;;;;;;;2.65;1.67;;;22.80;53.70;;;;;;5038071;28;20026;-63
2022/11/15 08:52:14;;;;;;;2.75;1.60;;;22.80;53.70;;;;;;5040514;28;20056;-62
2022/11/15 08:54:39;;;;;;;2.10;1.40;;;22.80;53.80;;;;;;5023943;28;20082;-63
2022/11/15 08:57:06;;;;;;;1.88;1.40;;;22.70;53.70;;;;;;5029796;28;20033;-63
2022/11/15 08:59:32;;;;;;;2.08;1.35;;;22.70;53.70;;;;;;5032267;28;20026;-63
2022/11/15 09:01:58;;;;;;;2.55;1.60;;;22.80;53.70;;;;;;5033393;28;20110;-63
2022/11/15 09:04:23;;;;;;;2.58;1.50;;;22.70;53.70;;;;;;5036022;28;20056;-63
2022/11/15 09:06:49;;;;;;;2.40;1.50;;;22.70;53.70;;;;;;5039115;28;20420;-63
2022/11/15 09:09:14;;;;;;;2.67;1.60;;;22.70;53.70;;;;;;5038894;28;20028;-63
2022/11/15 09:11:40;;;;;;;2.20;1.55;;;22.70;53.70;;;;;;5037175;28;20393;-62
2022/11/15 09:14:06;;;;;;;2.25;1.63;;;22.70;53.70;;;;;;5038776;28;20107;-62
2022/11/15 09:16:31;;;;;;;3.35;1.42;;;22.70;53.60;;;;;;5038835;28;20025;-62
2022/11/15 09:18:57;;;;;;;2.85;1.88;;;22.70;53.60;;;;;;5036110;28;20053;-62
2022/11/15 09:21:23;;;;;;;2.22;1.50;;;22.80;53.60;;;;;;5034721;28;20585;-61
2022/11/15 09:23:52;;;;;;;3.03;1.58;;;22.70;53.50;;;;;;5035894;28;20093;-61
2022/11/15 09:26:18;;;;;;;2.25;1.40;;;22.70;53.60;;;;;;5038206;28;20047;-61
2022/11/15 09:28:44;;;;;;;2.35;1.60;;;22.70;53.70;;;;;;5036401;28;20032;-63
2022/11/15 09:31:10;;;;;;;2.40;1.40;;;22.70;53.70;;;;;;5031686;28;20030;-64
2022/11/15 09:33:36;;;;;;;2.30;1.35;;;22.70;53.60;;;;;;5028898;28;20022;-62
2022/11/15 09:36:07;;;;;;;2.85;1.50;;;22.70;53.70;;;;;;5029880;28;20037;-63
2022/11/15 09:38:33;;;;;;;2.13;1.40;;;22.70;53.60;;;;;;5036927;28;20041;-63
2022/11/15 09:41:37;;;;;;;2.38;1.48;;;22.70;53.70;;;;;;5035233;28;20163;-62
2022/11/15 09:44:37;;;;;;;2.72;1.50;;;22.70;53.60;;;;;;5039559;28;20474;-62
2022/11/15 09:47:29;;;;;;;2.35;1.58;;;22.70;53.70;;;;;;5038131;28;20021;-62
2022/11/15 09:49:58;;;;;;;2.78;1.50;;;22.80;53.70;;;;;;5034365;28;20067;-62
2022/11/15 09:52:24;;;;;;;;;;;22.70;53.70;;;;;;5036436;28;20029;-63
2022/11/15 09:54:51;;;;;;;2.72;1.60;;;22.80;53.70;;;;;;5036928;28;20280;-63
2022/11/15 09:57:40;;;;;;;2.30;1.50;;;22.80;53.70;;;;;;5032666;28;20167;-61
2022/11/15 10:00:17;;;;;;;2.50;1.52;;;22.80;53.70;;;;;;5032018;28;20072;-61
2022/11/15 10:03:04;;;;;;;2.00;1.33;;;22.70;53.70;;;;;;5031879;28;20029;-62
2022/11/15 10:05:31;;;;;;;3.25;1.50;;;22.80;53.70;;;;;;5038631;28;20472;-62
2022/11/15 10:08:12;;;;;;;2.00;1.38;;;22.80;53.70;;;;;;5032687;28;20416;-63
2022/11/15 10:10:46;;;;;;;2.78;1.60;;;22.80;53.80;;;;;;5034010;28;20433;-62
2022/11/15 10:13:25;;;;;;;2.22;1.50;;;22.80;53.80;;;;;;5036658;28;20052;-62
2022/11/15 10:15:53;;;;;;;2.35;1.60;;;22.80;53.70;;;;;;5038127;28;20030;-62
2022/11/15 10:18:34;;;;;;;1.77;1.27;;;22.80;53.70;;;;;;5032107;28;20417;-62
2022/11/15 10:21:14;;;;;;;1.92;1.30;;;22.80;53.70;;;;;;5041311;28;20400;-62
2022/11/15 10:23:40;;;;;;;2.40;1.48;;;22.80;53.70;;;;;;5039496;28;20119;-62
2022/11/15 10:26:11;;;;;;;2.38;1.27;;;22.80;53.70;;;;;;5037127;28;20552;-62
2022/11/15 10:28:36;;;;;;;2.35;1.40;;;22.80;53.70;;;;;;5033731;28;20031;-62
2022/11/15 10:31:02;;;;;;;2.92;1.52;;;22.80;53.80;;;;;;5036325;28;20038;-63
2022/11/15 10:33:35;;;;;;;2.78;1.40;;;22.80;53.70;;;;;;5033480;28;20029;-63
2022/11/15 10:36:12;;;;;;;2.55;1.40;;;22.90;53.80;;;;;;5034088;28;20472;-62
2022/11/15 10:38:50;;;;;;;3.42;1.67;;;22.80;53.70;;;;;;5030020;28;20547;-63
2022/11/15 10:41:27;;;;;;;2.80;1.80;;;22.90;53.80;;;;;;5028221;28;20105;-64
2022/11/15 10:44:17;;;;;;;1.98;1.33;;;22.90;53.80;;;;;;5030479;28;20524;-62
2022/11/15 10:46:47;;;;;;;2.40;1.52;;;22.90;53.80;;;;;;5034612;28;20483;-63
2022/11/15 10:49:18;;;;;;;2.60;1.50;;;22.90;53.80;;;;;;5034982;28;20037;-63
2022/11/15 10:51:56;;;;;;;3.22;1.65;;;22.90;53.80;;;;;;5030902;28;20437;-62
2022/11/15 10:54:37;;;;;;;2.47;1.60;;;22.90;53.80;;;;;;5032191;28;20032;-63
2022/11/15 10:57:12;;;;;;;2.47;1.70;;;22.90;53.80;;;;;;5034263;28;20026;-63
2022/11/15 10:59:38;;;;;;;2.13;1.50;;;22.90;53.70;;;;;;5039747;28;20036;-62
2022/11/15 11:02:41;;;;;;;3.40;1.60;;;22.80;53.60;;;;;;5046233;28;20036;-62
2022/11/15 11:05:37;;;;;;;2.42;1.55;;;22.80;53.80;;;;;;5046630;28;20021;-62
2022/11/15 11:08:14;;;;;;;2.42;1.50;;;22.80;53.70;;;;;;5045374;28;20030;-62
2022/11/15 11:10:55;;;;;;;2.22;1.48;;;22.80;53.70;;;;;;5036775;28;20025;-62
2022/11/15 11:13:24;;;;;;;3.03;1.73;;;22.90;53.80;;;;;;5041958;28;20592;-62
2022/11/15 11:16:13;;;;;;;2.28;1.38;;;22.80;53.70;;;;;;5037026;28;20075;-62
2022/11/15 11:18:56;;;;;;;2.70;1.77;;;22.90;53.80;;;;;;4990956;28;20069;-62
2022/11/15 11:21:52;;;;;;;3.80;1.50;;;22.90;53.90;;;;;;5030119;28;20071;-63
2022/11/15 11:24:38;;;;;;;2.40;1.50;;;22.80;53.80;;;;;;5035216;28;20495;-62
2022/11/15 11:27:40;;;;;;;2.58;1.40;;;22.80;53.90;;;;;;5034900;28;20025;-63
2022/11/15 11:30:20;;;;;;;3.30;1.60;;;22.80;54.00;;;;;;5033121;28;20029;-63
2022/11/15 11:32:48;;;;;;;2.67;1.50;;;22.80;54.00;;;;;;5029485;28;20491;-62
2022/11/15 11:35:27;;;;;;;2.83;1.58;;;22.80;54.00;;;;;;5033371;28;20107;-61
2022/11/15 11:37:53;;;;;;;;;;;22.80;54.10;;;;;;5038649;28;20052;-61
2022/11/15 11:40:30;;;;;;;3.13;1.80;;;22.80;54.10;;;;;;5036432;28;20325;-62
2022/11/15 11:43:24;;;;;;;3.58;1.60;;;22.80;54.20;;;;;;5035421;28;20030;-62
2022/11/15 11:46:02;;;;;;;4.00;1.80;;;22.80;54.10;;;;;;5000294;28;20042;-62
2022/11/15 11:48:40;;;;;;;4.88;1.98;;;22.80;54.00;;;;;;5033933;28;20025;-62
2022/11/15 11:51:15;;;;;;;3.78;1.90;;;22.80;53.90;;;;;;5038062;28;20036;-62
2022/11/15 11:53:55;;;;;;;3.20;1.90;;;22.80;53.90;;;;;;5034144;28;20092;-62
2022/11/15 11:56:28;;;;;;;4.45;2.08;;;22.80;53.90;;;;;;5031536;28;20436;-63
2022/11/15 11:58:57;;;;;;;4.00;2.00;;;22.80;53.90;;;;;;5033844;28;20091;-62
2022/11/15 12:01:24;;;;;;;4.15;1.90;;;22.80;54.00;;;;;;5029051;28;20117;-62
2022/11/15 12:04:11;;;;;;;3.83;2.10;;;22.80;54.00;;;;;;5038318;28;20373;-62
2022/11/15 12:06:57;;;;;;;3.20;1.88;;;22.80;54.10;;;;;;5033545;28;20393;-63
2022/11/15 12:09:44;;;;;;;4.93;1.88;;;22.80;54.00;;;;;;5010940;28;20559;-62
2022/11/15 12:12:29;;;;;;;4.25;1.88;;;22.80;54.00;;;;;;5036572;28;20030;-62
2022/11/15 12:15:10;;;;;;;5.00;1.85;;;22.80;54.00;;;;;;5036186;28;20042;-62
2022/11/15 12:17:37;;;;;;;5.53;2.28;;;22.80;54.10;;;;;;5040348;28;20022;-62
2022/11/15 12:20:25;;;;;;;3.28;1.90;;;22.80;54.00;;;;;;5029891;28;20032;-62
2022/11/15 12:23:10;;;;;;;2.95;1.60;;;22.80;54.10;;;;;;5024522;28;20370;-64
2022/11/15 12:25:57;;;;;;;5.22;2.13;;;22.80;54.20;;;;;;5044664;28;20021;-62
2022/11/15 12:28:44;;;;;;;2.70;1.80;;;22.80;54.20;;;;;;5037053;28;20672;-63
2022/11/15 12:31:30;;;;;;;3.95;1.80;;;22.80;54.20;;;;;;5026802;28;20040;-64
2022/11/15 12:33:58;;;;;;;3.63;1.90;;;22.80;54.20;;;;;;5040779;28;20021;-63
2022/11/15 12:36:23;;;;;;;3.22;1.90;;;22.90;54.80;;;;;;5033659;28;20400;-63
2022/11/15 12:39:02;;;;;;;3.50;1.80;;;22.90;54.30;;;;;;5029130;28;20080;-62
2022/11/15 12:41:34;;;;;;;2.85;1.70;;;22.90;54.40;;;;;;5034293;28;20417;-62
2022/11/15 12:44:01;;;;;;;2.70;1.70;;;22.80;54.30;;;;;;5033204;28;20034;-62
2022/11/15 12:46:29;;;;;;;3.47;1.80;;;22.90;54.40;;;;;;5021086;28;20082;-63
2022/11/15 12:48:56;;;;;;;3.20;1.90;;;22.90;54.40;;;;;;5029707;28;20083;-62
2022/11/15 12:51:47;;;;;;;3.13;1.90;;;22.90;54.40;;;;;;5035370;28;20025;-63
2022/11/15 12:54:22;;;;;;;3.17;1.88;;;22.90;54.40;;;;;;5041856;28;20380;-63
2022/11/15 12:57:19;;;;;;;2.63;1.67;;;22.90;54.40;;;;;;5031025;28;20029;-63
2022/11/15 13:00:01;;;;;;;4.07;1.70;;;22.90;54.50;;;;;;4989921;28;20042;-62
2022/11/15 13:02:45;;;;;;;4.22;2.10;;;22.90;54.50;;;;;;5029108;28;20522;-63
2022/11/15 13:05:14;;;;;;;5.45;2.20;;;22.90;54.50;;;;;;5039219;28;20048;-63
2022/11/15 13:07:39;;;;;;;4.47;1.65;;;22.90;54.50;;;;;;5033880;28;20029;-63
2022/11/15 13:10:26;;;;;;;3.22;1.90;;;22.90;54.50;;;;;;5032757;28;20079;-63
2022/11/15 13:12:57;;;;;;;3.65;1.90;;;23.00;54.50;;;;;;5003765;28;20117;-63
2022/11/15 13:15:58;;;;;;;3.03;1.67;;;23.00;54.40;;;;;;5026109;28;20028;-62
2022/11/15 13:18:38;;;;;;;3.33;1.88;;;23.00;54.40;;;;;;5033072;28;20037;-62
2022/11/15 13:24:03;;;;;;;4.17;1.90;;;23.00;54.40;;;;;;5039863;28;20087;-63